createdAt,value
2023-02-12T00:01:18.171Z,10.3625
2023-02-12T00:04:17.126Z,7.949999999999999
2023-02-12T00:07:17.006Z,9.925
2023-02-12T00:11:17.860Z,11.9
2023-02-12T00:14:16.081Z,10.3375
2023-02-12T00:17:16.076Z,9.587499999999999
2023-02-12T00:21:17.825Z,10.6125
2023-02-12T00:24:16.606Z,8.9125
2023-02-12T00:27:16.610Z,11.7875
2023-02-12T00:31:19.553Z,8.4125
2023-02-12T00:34:16.638Z,9.9125
2023-02-12T00:37:16.785Z,14.924999999999999
2023-02-12T00:41:16.020Z,8.0375
2023-02-12T00:44:16.340Z,7.05
2023-02-12T00:47:17.418Z,12.2375
2023-02-12T00:51:16.366Z,10.6375
2023-02-12T00:54:17.067Z,14.075
2023-02-12T00:57:16.883Z,10.8125
2023-02-12T01:01:16.911Z,10.712499999999999
2023-02-12T01:04:18.212Z,10.925
2023-02-12T01:07:16.961Z,9.9375
2023-02-12T01:11:15.834Z,8.9875
2023-02-12T01:14:16.287Z,7.2875
2023-02-12T01:17:16.097Z,9.087499999999999
2023-02-12T01:21:18.876Z,8.9
2023-02-12T01:24:16.645Z,10.099999999999998
2023-02-12T01:27:16.828Z,8.375
2023-02-12T01:31:17.881Z,9.8625
2023-02-12T01:34:16.104Z,10.649999999999999
2023-02-12T01:37:16.106Z,14.0625
2023-02-12T01:41:18.932Z,11.912500000000001
2023-02-12T01:44:19.048Z,12.1375
2023-02-12T01:47:17.878Z,19.6875
2023-02-12T01:51:19.884Z,10.5125
2023-02-12T01:54:19.406Z,8.175
2023-02-12T01:57:18.730Z,5.8875
2023-02-12T02:01:21.058Z,9.4375
2023-02-12T02:04:21.758Z,10.525
2023-02-12T02:07:16.892Z,7.2125
2023-02-12T02:21:42.163Z,10.175
2023-02-12T02:24:34.923Z,7.775
2023-02-12T02:27:22.070Z,8.5375
2023-02-12T02:31:21.734Z,8.912500000000001
2023-02-12T02:34:23.866Z,8.2625
2023-02-12T02:37:22.345Z,11.425
2023-02-12T02:41:21.652Z,8.4375
2023-02-12T02:44:23.402Z,8.1625
2023-02-12T02:51:22.115Z,7.8125
2023-02-12T02:54:22.866Z,7.9625
2023-02-12T02:57:22.474Z,9.55
2023-02-12T03:01:23.476Z,9.7375
2023-02-12T03:04:20.946Z,9.425
2023-02-12T03:07:20.870Z,7.824999999999999
2023-02-12T03:11:21.958Z,6.4375
2023-02-12T03:14:21.275Z,8.3
2023-02-12T03:17:22.765Z,8.2125
2023-02-12T03:21:21.952Z,6.5625
2023-02-12T03:24:22.045Z,9.2125
2023-02-12T03:27:21.634Z,6.012499999999999
2023-02-12T03:31:27.068Z,8.025
2023-02-12T03:34:24.270Z,8.9625
2023-02-12T03:37:21.203Z,10.674999999999999
2023-02-12T03:41:22.030Z,8.274999999999999
2023-02-12T03:44:26.864Z,10.5375
2023-02-12T03:47:23.132Z,10.65
2023-02-12T03:51:22.645Z,9.237499999999999
2023-02-12T03:54:20.667Z,8.75
2023-02-12T03:57:20.828Z,8.037500000000001
2023-02-12T04:01:16.903Z,7.987499999999999
2023-02-12T04:04:17.290Z,10.175
2023-02-12T04:07:17.568Z,9.95
2023-02-12T04:11:24.801Z,6.637499999999999
2023-02-12T04:14:26.129Z,8.8125
2023-02-12T04:17:25.720Z,6.300000000000001
2023-02-12T04:21:27.340Z,5.987500000000001
2023-02-12T04:24:25.029Z,8.212499999999999
2023-02-12T04:27:23.128Z,7.1
2023-02-12T04:31:23.238Z,8.95
2023-02-12T04:34:23.495Z,6.1875
2023-02-12T04:37:20.188Z,7.262499999999999
2023-02-12T04:41:16.298Z,9
2023-02-12T04:44:18.823Z,4.949999999999999
2023-02-12T04:47:16.836Z,8.5625
2023-02-12T04:51:16.212Z,9.0375
2023-02-12T04:54:18.683Z,6.6
2023-02-12T04:57:16.471Z,7.7375
2023-02-12T05:01:16.558Z,8.9
2023-02-12T05:04:18.062Z,13.4875
2023-02-12T05:07:16.931Z,11.0625
2023-02-12T05:11:16.435Z,9.175
2023-02-12T05:14:16.983Z,9.5125
2023-02-12T05:17:16.868Z,9.525
2023-02-12T05:21:16.319Z,8.425
2023-02-12T05:24:16.316Z,7.300000000000001
2023-02-12T05:27:16.417Z,9.2
2023-02-12T05:31:21.156Z,8.1875
2023-02-12T05:34:17.025Z,5.6125
2023-02-12T05:37:16.831Z,5.725
2023-02-12T05:41:19.695Z,6.4625
2023-02-12T05:44:16.479Z,6.1875
2023-02-12T05:47:16.257Z,7.7625
2023-02-12T05:51:19.015Z,7.6875
2023-02-12T05:54:16.832Z,7.362500000000001
2023-02-12T05:57:16.841Z,7.262499999999999
2023-02-12T06:01:18.520Z,4.9375
2023-02-12T06:04:19.727Z,5.8999999999999995
2023-02-12T06:07:16.258Z,6.7
2023-02-12T06:11:16.675Z,8.287500000000001
2023-02-12T06:14:18.461Z,6.5875
2023-02-12T06:17:16.141Z,6.4375
2023-02-12T06:21:17.634Z,8.6875
2023-02-12T06:24:17.128Z,6.325
2023-02-12T06:27:16.696Z,5.5625
2023-02-12T06:31:20.548Z,13.549999999999999
2023-02-12T06:34:18.194Z,7.725
2023-02-12T06:37:17.215Z,7.5875
2023-02-12T06:41:16.731Z,7.65
2023-02-12T06:44:18.050Z,8.4875
2023-02-12T06:47:17.026Z,6.887500000000001
2023-02-12T06:51:18.814Z,7.725
2023-02-12T06:54:18.336Z,6.050000000000001
2023-02-12T06:57:18.500Z,60.112500000000004
2023-02-12T07:01:20.765Z,193.625
2023-02-12T07:04:16.123Z,209.675
2023-02-12T07:07:16.278Z,309.4
2023-02-12T07:11:21.820Z,362.4
2023-02-12T07:14:16.971Z,364.65
2023-02-12T07:17:16.593Z,656.65
2023-02-12T07:21:19.041Z,716.6
2023-02-12T07:24:18.292Z,271.34999999999997
2023-02-12T07:27:21.614Z,41.7875
2023-02-12T07:31:21.305Z,15.2625
2023-02-12T07:34:16.821Z,8.950000000000001
2023-02-12T07:37:24.515Z,14.9375
2023-02-12T07:41:18.923Z,7.1
2023-02-12T07:44:17.733Z,6.4375
2023-02-12T07:47:17.643Z,6.05
2023-02-12T07:51:18.598Z,12.4625
2023-02-12T07:54:17.011Z,15.9
2023-02-12T07:57:16.640Z,12.6125
2023-02-12T08:01:19.564Z,7.487499999999999
2023-02-12T08:04:19.659Z,7.762499999999999
2023-02-12T08:07:16.128Z,12.4875
2023-02-12T08:11:16.081Z,9.3375
2023-02-12T08:14:18.448Z,9.675
2023-02-12T08:17:17.473Z,7.5875
2023-02-12T08:21:20.464Z,10.9375
2023-02-12T08:24:17.877Z,9.1125
2023-02-12T08:27:17.238Z,11.55
2023-02-12T08:31:22.144Z,12.25
2023-02-12T08:34:22.101Z,16.4625
2023-02-12T08:37:18.343Z,15.525
2023-02-12T08:41:20.673Z,19.15
2023-02-12T08:44:17.221Z,9.6625
2023-02-12T08:47:16.779Z,17.9
2023-02-12T08:51:20.657Z,16.65
2023-02-12T08:54:21.768Z,12.8875
2023-02-12T08:57:17.176Z,16.4125
2023-02-12T09:01:18.468Z,13.8875
2023-02-12T09:04:20.540Z,20.625
2023-02-12T09:07:16.511Z,15.9625
2023-02-12T09:11:18.948Z,27.6
2023-02-12T09:14:18.353Z,42.662499999999994
2023-02-12T09:17:16.512Z,36.300000000000004
2023-02-12T09:21:19.349Z,26.1625
2023-02-12T09:24:16.421Z,20.025
2023-02-12T09:27:16.425Z,23.112499999999997
2023-02-12T09:31:18.739Z,53.825
2023-02-12T09:34:16.557Z,37.349999999999994
2023-02-12T09:37:16.853Z,28.9875
2023-02-12T09:41:30.962Z,22.7125
2023-02-12T09:44:21.893Z,24.262500000000003
2023-02-12T09:47:22.898Z,26.9375
2023-02-12T09:51:17.117Z,36.6375
2023-02-12T09:54:19.690Z,25.975
2023-02-12T09:57:23.018Z,23.8
2023-02-12T10:01:18.774Z,22.4
2023-02-12T10:04:17.192Z,27.45
2023-02-12T10:07:26.383Z,31.3625
2023-02-12T10:11:31.431Z,24.75
2023-02-12T10:15:02.207Z,28.9125
2023-02-12T10:17:27.066Z,30.675
2023-02-12T10:21:31.183Z,27.025
2023-02-12T10:24:33.564Z,33.8125
2023-02-12T10:27:22.175Z,23.5875
2023-02-12T10:31:22.724Z,18.212500000000002
2023-02-12T10:34:20.024Z,23.825
2023-02-12T10:37:24.989Z,24.675
2023-02-12T10:41:16.870Z,24.3375
2023-02-12T10:44:16.244Z,43.474999999999994
2023-02-12T10:47:19.466Z,40.0375
2023-02-12T10:51:34.395Z,31.525
2023-02-12T10:54:35.411Z,35.0625
2023-02-12T10:57:21.088Z,36.7375
2023-02-12T11:01:20.225Z,30.200000000000003
2023-02-12T11:04:24.006Z,19.8
2023-02-12T11:07:17.045Z,30.824999999999996
2023-02-12T11:11:19.506Z,32.4
2023-02-12T11:14:19.757Z,26.375
2023-02-12T11:17:25.476Z,23.4875
2023-02-12T11:21:22.546Z,20.287499999999998
2023-02-12T11:24:34.871Z,16.887500000000003
2023-02-12T11:27:23.016Z,18.5625
2023-02-12T11:31:22.764Z,19.1625
2023-02-12T11:34:18.441Z,15.674999999999999
2023-02-12T11:37:19.524Z,18.425
2023-02-12T11:41:25.301Z,30.387500000000003
2023-02-12T11:44:19.961Z,21.8625
2023-02-12T11:47:19.901Z,17.700000000000003
2023-02-12T11:51:21.991Z,17.8875
2023-02-12T11:54:21.372Z,21.950000000000003
2023-02-12T11:57:51.014Z,26.975
2023-02-12T12:01:21.106Z,17.287499999999998
2023-02-12T12:04:21.041Z,17.224999999999998
2023-02-12T12:07:21.778Z,27.1625
2023-02-12T12:11:21.837Z,24.349999999999998
2023-02-12T12:14:23.679Z,17.5
2023-02-12T12:21:23.929Z,26.275
2023-02-12T12:24:23.713Z,18.5
2023-02-12T12:28:16.691Z,15.4625
2023-02-12T12:31:19.560Z,18.325000000000003
2023-02-12T12:34:20.238Z,19.1
2023-02-12T12:37:29.693Z,19.375
2023-02-12T12:41:26.605Z,42.037499999999994
2023-02-12T12:44:28.906Z,72.22500000000001
2023-02-12T12:47:29.622Z,109.26249999999999
2023-02-12T12:51:30.276Z,99.05000000000001
2023-02-12T12:54:31.942Z,101.475
2023-02-12T12:57:29.083Z,76.1125
2023-02-12T13:01:33.453Z,112.9625
2023-02-12T13:04:54.335Z,78.1125
2023-02-12T13:07:34.956Z,35.599999999999994
2023-02-12T13:11:29.819Z,30.9375
2023-02-12T13:14:30.220Z,41.925
2023-02-12T13:17:24.939Z,35.7
2023-02-12T13:21:28.786Z,25.799999999999997
2023-02-12T13:24:32.811Z,22.875
2023-02-12T13:27:21.928Z,36.95
2023-02-12T13:31:32.661Z,24.525
2023-02-12T13:34:17.875Z,23.6125
2023-02-12T13:37:23.509Z,19.5875
2023-02-12T13:41:19.951Z,40.125
2023-02-12T13:44:24.583Z,33
2023-02-12T13:47:30.991Z,23.1625
2023-02-12T13:51:26.161Z,17.900000000000002
2023-02-12T13:54:29.045Z,17.362499999999997
2023-02-12T13:57:18.481Z,28.862499999999997
2023-02-12T14:01:50.160Z,19.425
2023-02-12T14:04:27.000Z,20.2375
2023-02-12T14:07:17.677Z,27.15
2023-02-12T14:11:21.878Z,24.45
2023-02-12T14:14:25.684Z,20.375
2023-02-12T14:18:24.707Z,25.299999999999997
2023-02-12T14:21:34.703Z,31.437500000000004
2023-02-12T14:31:30.504Z,83.225
2023-02-12T14:34:38.654Z,39.5125
2023-02-12T14:37:37.532Z,21.3375
2023-02-12T14:41:37.378Z,20.700000000000003
2023-02-12T14:45:28.001Z,36.5
2023-02-12T14:47:49.801Z,44.025
2023-02-12T14:51:23.631Z,36.912499999999994
2023-02-12T14:54:28.592Z,41.162499999999994
2023-02-12T14:57:24.330Z,35.3125
2023-02-12T15:01:17.068Z,29.5625
2023-02-12T15:04:23.507Z,26.3375
2023-02-12T15:07:27.037Z,25
2023-02-12T15:11:32.806Z,36.025000000000006
2023-02-12T15:14:21.500Z,16.1
2023-02-12T15:17:21.453Z,17.9
2023-02-12T15:21:22.162Z,26.9
2023-02-12T15:24:22.711Z,18.7375
2023-02-12T15:27:19.667Z,28.900000000000002
2023-02-12T15:31:19.202Z,37.224999999999994
2023-02-12T15:34:22.902Z,26.6
2023-02-12T15:37:21.888Z,35.237500000000004
2023-02-12T15:41:26.976Z,155.8875
2023-02-12T15:44:24.180Z,48.4375
2023-02-12T15:47:18.449Z,26.825
2023-02-12T15:51:22.351Z,35.25
2023-02-12T15:54:19.469Z,38.037499999999994
2023-02-12T15:57:21.597Z,26.0375
2023-02-12T16:01:19.706Z,37.1125
2023-02-12T16:04:17.352Z,33.125
2023-02-12T16:07:18.519Z,17.025
2023-02-12T16:11:20.331Z,20.212500000000002
2023-02-12T16:14:21.751Z,22.15
2023-02-12T16:17:22.583Z,21.875
2023-02-12T16:21:22.313Z,20.85
2023-02-12T16:24:26.932Z,17.75
2023-02-12T16:27:18.329Z,20.8625
2023-02-12T16:31:16.603Z,22.075
2023-02-12T16:34:28.468Z,23.25
2023-02-12T16:37:42.819Z,25.8875
2023-02-12T16:41:22.315Z,27.4375
2023-02-12T16:44:27.262Z,24.65
2023-02-12T16:47:22.197Z,28.775
2023-02-12T16:51:22.439Z,27.3125
2023-02-12T16:54:29.967Z,21.675
2023-02-12T16:57:18.251Z,26.450000000000003
2023-02-12T17:01:20.414Z,45.125
2023-02-12T17:04:16.568Z,32.862500000000004
2023-02-12T17:07:20.474Z,38.775000000000006
2023-02-12T17:11:18.646Z,29.625
2023-02-12T17:14:19.432Z,25.262500000000003
2023-02-12T17:17:17.324Z,32.1875
2023-02-12T17:21:20.874Z,26.049999999999997
2023-02-12T17:24:21.262Z,25.3375
2023-02-12T17:27:16.167Z,24.387500000000003
2023-02-12T17:31:16.960Z,22.625
2023-02-12T17:34:17.204Z,34.9625
2023-02-12T17:37:17.589Z,29.5125
2023-02-12T17:41:17.957Z,28
2023-02-12T17:44:19.574Z,25.924999999999997
2023-02-12T17:47:18.521Z,23.9375
2023-02-12T17:51:16.738Z,24.4875
2023-02-12T17:54:18.322Z,21.7875
2023-02-12T17:57:17.046Z,20.424999999999997
2023-02-12T18:01:19.343Z,24.1
2023-02-12T18:04:16.632Z,25.9125
2023-02-12T18:07:16.965Z,21.6375
2023-02-12T18:11:16.345Z,21.8625
2023-02-12T18:14:16.596Z,16.7125
2023-02-12T18:17:16.604Z,20.075000000000003
2023-02-12T18:21:16.654Z,24.1625
2023-02-12T18:24:16.560Z,19.9875
2023-02-12T18:27:17.635Z,17.1875
2023-02-12T18:31:19.691Z,13.9
2023-02-12T18:34:18.410Z,11.262500000000001
2023-02-12T18:37:17.354Z,11.387500000000001
2023-02-12T18:41:18.733Z,12.25
2023-02-12T18:44:17.287Z,14.2125
2023-02-12T18:47:19.495Z,10.7125
2023-02-12T18:51:23.322Z,10.75
2023-02-12T19:01:19.281Z,14.4
2023-02-12T19:04:19.924Z,11.55
2023-02-12T19:07:17.651Z,9.4375
2023-02-12T19:11:17.527Z,19.225
2023-02-12T19:14:19.589Z,16.6625
2023-02-12T19:17:17.042Z,15.425
2023-02-12T19:21:17.029Z,9.975
2023-02-12T19:24:17.566Z,16.125
2023-02-12T19:27:18.101Z,10.7625
2023-02-12T19:31:18.462Z,12.4875
2023-02-12T19:34:19.710Z,10.4625
2023-02-12T19:37:16.459Z,9.575
2023-02-12T19:41:19.322Z,11.075
2023-02-12T19:44:19.127Z,7.4
2023-02-12T19:47:16.704Z,10.9375
2023-02-12T19:51:19.214Z,19.3875
2023-02-12T19:54:18.671Z,28.3125
2023-02-12T19:57:16.646Z,13.6125
2023-02-12T20:01:19.596Z,11.8625
2023-02-12T20:04:18.457Z,10.7875
2023-02-12T20:07:17.274Z,9.45
2023-02-12T20:11:19.222Z,6.7875
2023-02-12T20:14:19.613Z,11.975
2023-02-12T20:17:21.115Z,8.65
2023-02-12T20:21:22.755Z,7.562500000000001
2023-02-12T20:24:22.404Z,8.6875
2023-02-12T20:27:17.199Z,8.7375
2023-02-12T20:31:20.594Z,8.112499999999999
2023-02-12T20:34:20.567Z,5.675
2023-02-12T20:37:19.553Z,6.325
2023-02-12T20:41:16.529Z,6.4875
2023-02-12T20:44:22.299Z,11.0125
2023-02-12T20:47:17.243Z,6.95
2023-02-12T20:51:18.597Z,8.975
2023-02-12T20:54:16.605Z,16.887500000000003
2023-02-12T20:57:17.097Z,17.9
2023-02-12T21:01:20.623Z,8.8625
2023-02-12T21:04:19.467Z,8.7
2023-02-12T21:07:16.613Z,4.3625
2023-02-12T21:11:20.980Z,6.324999999999999
2023-02-12T21:14:22.813Z,5.4375
2023-02-12T21:17:16.808Z,4.7375
2023-02-12T21:21:18.992Z,7.125
2023-02-12T21:24:18.893Z,5.1625
2023-02-12T21:27:16.831Z,4.637499999999999
2023-02-12T21:31:17.860Z,7.1
2023-02-12T21:34:18.587Z,6.0625
2023-02-12T21:37:16.073Z,4.1875
2023-02-12T21:41:19.156Z,4.8375
2023-02-12T21:44:18.911Z,4.35
2023-02-12T21:47:16.519Z,4.637499999999999
2023-02-12T21:51:18.750Z,5.8
2023-02-12T21:54:16.633Z,3.8
2023-02-12T21:57:19.984Z,5.2625
2023-02-12T22:01:18.706Z,5.375
2023-02-12T22:04:18.257Z,5.725
2023-02-12T22:07:16.647Z,5.0875
2023-02-12T22:11:16.964Z,6.112500000000001
2023-02-12T22:14:17.705Z,7.475
2023-02-12T22:17:16.424Z,10.8125
2023-02-12T22:21:16.847Z,7.2875
2023-02-12T22:24:16.619Z,8.3625
2023-02-12T22:27:16.586Z,7.675000000000001
2023-02-12T22:31:22.048Z,8.625
2023-02-12T22:34:17.798Z,5.875
2023-02-12T22:37:16.355Z,7.8125
2023-02-12T22:41:16.163Z,7.299999999999999
2023-02-12T22:44:16.432Z,9.5
2023-02-12T22:47:16.390Z,6.9125000000000005
2023-02-12T22:51:20.468Z,5.637499999999999
2023-02-12T22:54:18.118Z,7.3625
2023-02-12T22:57:16.653Z,6.05
2023-02-12T23:01:18.034Z,10.3625
2023-02-12T23:04:17.771Z,6.737500000000001
2023-02-12T23:07:16.743Z,8.2375
2023-02-12T23:11:16.060Z,8.6
2023-02-12T23:14:16.366Z,7.175
2023-02-12T23:17:16.140Z,7.487500000000001
2023-02-12T23:21:16.495Z,6.1
2023-02-12T23:24:16.411Z,11.875
2023-02-12T23:27:16.407Z,7.1
2023-02-12T23:31:16.215Z,12.0125
2023-02-12T23:34:16.572Z,5.737500000000001
2023-02-12T23:37:16.138Z,7.4375
2023-02-12T23:41:16.276Z,10.975
2023-02-12T23:44:16.648Z,5.7875
2023-02-12T23:47:16.550Z,8.175
2023-02-12T23:51:15.656Z,8
2023-02-12T23:54:15.988Z,6.85
2023-02-12T23:57:15.963Z,6.487500000000001
